This is the latest recevied weather packets stored in our database for station/object WI5ARD. If no packets are shown the sender has not sent any weather packets the latest 10 day(s).
| Time | Temp. | Humidity | Pressure | Rain* | Wind** | Luminosity | Snow |
|---|---|---|---|---|---|---|---|
| 1777748441 | 21.67° C | 51% | 1017.8 hPa | 0 mm | - | 1007 W/m² | - |
| 1777747821 | 21.67° C | 55% | 1017.9 hPa | 0 mm | - | 1021 W/m² | - |
| 1777746921 | 21.67° C | 57% | 1017.8 hPa | 0 mm | - | 1028 W/m² | - |
| 1777744520 | 21.11° C | 61% | 1018.1 hPa | 0 mm | - | 1035 W/m² | - |
| 1777744220 | 21.67° C | 65% | 1018.1 hPa | 0 mm | - | 1039 W/m² | - |
| 1777743619 | 21.11° C | 66% | 1018.1 hPa | 0 mm | - | 1148 W/m² | - |
| 1777743040 | 20.56° C | 62% | 1018.4 hPa | 0 mm | - | 1100 W/m² | - |
| 1777739718 | 20.56° C | 71% | 1018.6 hPa | 0 mm | - | 1158 W/m² | - |
| 1777734938 | 17.78° C | 79% | 1018.2 hPa | 0 mm | - | 798 W/m² | - |
| 1777734038 | 17.78° C | 83% | 1018 hPa | 0 mm | - | 775 W/m² | - |
| 1777733422 | 16.67° C | 85% | 1017.9 hPa | 0 mm | - | 722 W/m² | - |
| 1777731922 | 15° C | 93% | 1017.8 hPa | 0 mm | - | 649 W/m² | - |
| 1777731622 | 15° C | 95% | 1017.9 hPa | 0 mm | - | 659 W/m² | - |
| 1777731019 | 13.89° C | 96% | 1017.7 hPa | 0 mm | - | 165 W/m² | - |
| 1777730720 | 14.44° C | 96% | 1017.4 hPa | 0 mm | - | 229 W/m² | - |
| 1777730121 | 13.89° C | 97% | 1017.4 hPa | 0 mm | - | 506 W/m² | - |
| 1777726840 | 11.67° C | 96% | 1017.2 hPa | 0 mm | - | 142 W/m² | - |
| 1777725937 | 11.67° C | 97% | 1016.9 hPa | 0 mm | - | 69 W/m² | - |
| 1777723239 | 11.11° C | 96% | 1016.2 hPa | 0 mm | - | 32 W/m² | - |
| 1777722921 | 11.11° C | 96% | 1016.1 hPa | 0 mm | - | 35 W/m² | - |
| 1777721441 | 11.11° C | 96% | 1016.1 hPa | 0 mm | - | 0 W/m² | - |
| 1777719639 | 11.11° C | 97% | 1015.8 hPa | 0 mm | - | 0 W/m² | - |
| 1777718120 | 11.11° C | 97% | 1015.5 hPa | 0.51 mm | - | 0 W/m² | - |
| 1777715720 | 11.11° C | 97% | 1015.2 hPa | 0.76 mm | - | 0 W/m² | - |
| 1777713335 | 11.11° C | 97% | 1015.1 hPa | 0.25 mm | - | 0 W/m² | - |
* Rain latest hour (hover to see other rain measurements)
** Current wind speed in m/s (hover to see current wind gust speed)